createdAt,value
2017-12-19T00:00:49.275Z,25.37
2017-12-19T00:03:18.058Z,24.77
2017-12-19T00:05:46.864Z,23.55
2017-12-19T00:08:14.879Z,24.30
2017-12-19T00:10:43.019Z,27.42
2017-12-19T00:13:11.037Z,27.85
2017-12-19T00:15:39.048Z,26.70
2017-12-19T00:18:07.069Z,22.15
2017-12-19T00:20:35.116Z,26.50
2017-12-19T00:23:03.191Z,27.27
2017-12-19T00:25:31.311Z,25.23
2017-12-19T00:28:00.079Z,27.13
2017-12-19T00:30:28.112Z,30.92
2017-12-19T00:32:56.126Z,30.12
2017-12-19T00:35:24.169Z,25.58
2017-12-19T00:37:52.210Z,30.45
2017-12-19T00:40:20.202Z,29.23
2017-12-19T00:42:48.187Z,26.30
2017-12-19T00:45:16.175Z,27.85
2017-12-19T00:47:44.186Z,29.25
2017-12-19T00:50:12.208Z,27.33
2017-12-19T00:52:40.270Z,33.53
2017-12-19T00:55:08.267Z,25.35
2017-12-19T00:57:37.059Z,28.25
2017-12-19T01:00:05.830Z,32.35
2017-12-19T01:02:33.851Z,31.45
2017-12-19T01:05:01.876Z,31.50
2017-12-19T01:07:29.886Z,35.83
2017-12-19T01:09:57.953Z,28.55
2017-12-19T01:12:25.947Z,47.55
2017-12-19T01:14:53.940Z,25.08
2017-12-19T01:17:21.968Z,27.30
2017-12-19T01:19:50.054Z,28.92
2017-12-19T01:22:18.030Z,29.40
2017-12-19T01:24:46.119Z,33.28
2017-12-19T01:27:14.363Z,30.52
2017-12-19T01:29:42.291Z,28.12
2017-12-19T01:32:10.282Z,27.62
2017-12-19T01:34:39.011Z,29.05
2017-12-19T01:37:07.006Z,26.33
2017-12-19T01:39:34.999Z,28.87
2017-12-19T01:42:04.104Z,26.95
2017-12-19T01:44:32.950Z,24.58
2017-12-19T01:47:00.934Z,24.98
2017-12-19T01:49:28.915Z,22.62
2017-12-19T01:51:57.715Z,41.88
2017-12-19T01:54:26.462Z,29.05
2017-12-19T01:56:54.519Z,29.52
2017-12-19T01:59:22.504Z,34.47
2017-12-19T02:01:50.498Z,23.58
2017-12-19T02:04:18.524Z,26.12
2017-12-19T02:06:46.520Z,24.67
2017-12-19T02:09:14.532Z,24.95
2017-12-19T02:11:43.266Z,25.10
2017-12-19T02:14:11.283Z,31.23
2017-12-19T02:16:42.082Z,31.52
2017-12-19T02:19:10.188Z,26.48
2017-12-19T02:21:39.038Z,33.38
2017-12-19T02:24:07.122Z,27.45
2017-12-19T02:26:35.227Z,28.23
2017-12-19T02:29:04.093Z,26.73
2017-12-19T02:31:32.170Z,27.67
2017-12-19T02:34:00.279Z,26.05
2017-12-19T02:36:28.344Z,37.40
2017-12-19T02:38:56.418Z,29.42
2017-12-19T02:41:24.490Z,33.22
2017-12-19T02:43:52.567Z,29.23
2017-12-19T02:46:20.633Z,32.08
2017-12-19T02:48:48.726Z,28.17
2017-12-19T02:51:16.795Z,31.55
2017-12-19T02:53:44.883Z,32.65
2017-12-19T02:56:12.963Z,32.85
2017-12-19T02:58:40.998Z,26.30
2017-12-19T03:01:09.028Z,29.75
2017-12-19T03:03:37.341Z,28.67
2017-12-19T03:06:05.431Z,35.28
2017-12-19T03:08:33.519Z,27.13
2017-12-19T03:11:01.595Z,33.08
2017-12-19T03:13:29.675Z,27.92
2017-12-19T03:15:57.732Z,35.15
2017-12-19T03:18:25.808Z,31.77
2017-12-19T03:20:53.893Z,37.10
2017-12-19T03:23:22.021Z,28.85
2017-12-19T03:25:50.122Z,33.40
2017-12-19T03:28:18.235Z,29.45
2017-12-19T03:30:47.096Z,27.70
2017-12-19T03:33:15.179Z,30.27
2017-12-19T03:35:43.247Z,28.23
2017-12-19T03:38:11.350Z,28.52
2017-12-19T03:40:40.834Z,27.37
2017-12-19T03:43:08.901Z,32.25
2017-12-19T03:45:36.955Z,22.62
2017-12-19T03:48:05.942Z,27.40
2017-12-19T03:50:34.282Z,29.27
2017-12-19T03:53:02.882Z,30.30
2017-12-19T03:55:30.971Z,30.92
2017-12-19T03:57:59.570Z,24.08
2017-12-19T04:00:28.057Z,27.65
2017-12-19T04:02:56.230Z,24.17
2017-12-19T04:05:25.138Z,27.37
2017-12-19T04:07:53.838Z,27.62
2017-12-19T04:10:22.685Z,28.80
2017-12-19T04:12:50.774Z,26.23
2017-12-19T04:15:18.843Z,26.80
2017-12-19T04:17:46.928Z,25.05
2017-12-19T04:20:15.588Z,26.15
2017-12-19T04:22:44.423Z,25.70
2017-12-19T04:25:13.250Z,25.62
2017-12-19T04:27:41.344Z,27.10
2017-12-19T04:30:09.372Z,26.33
2017-12-19T04:32:37.430Z,22.77
2017-12-19T04:35:06.278Z,26.48
2017-12-19T04:37:34.312Z,26.23
2017-12-19T04:40:02.399Z,23.27
2017-12-19T04:42:30.462Z,25.77
2017-12-19T04:44:58.450Z,24.20
2017-12-19T04:47:26.570Z,24.75
2017-12-19T04:49:55.987Z,31.73
2017-12-19T04:52:24.049Z,21.52
2017-12-19T04:54:52.880Z,27.55
2017-12-19T04:57:21.257Z,24.90
2017-12-19T04:59:49.393Z,25.60
2017-12-19T05:02:18.210Z,27.17
2017-12-19T05:04:46.788Z,23.17
2017-12-19T05:07:14.899Z,28.12
2017-12-19T05:09:43.434Z,29.95
2017-12-19T05:12:11.549Z,24.50
2017-12-19T05:14:39.651Z,24.08
2017-12-19T05:17:07.773Z,23.35
2017-12-19T05:19:35.950Z,26.12
2017-12-19T05:22:04.099Z,26.90
2017-12-19T05:24:32.203Z,27.75
2017-12-19T05:27:00.299Z,30.00
2017-12-19T05:29:28.658Z,29.85
2017-12-19T05:31:56.744Z,21.42
2017-12-19T05:34:24.837Z,22.65
2017-12-19T05:36:52.950Z,27.80
2017-12-19T05:39:21.055Z,20.65
2017-12-19T05:41:49.130Z,27.00
2017-12-19T05:44:17.270Z,23.87
2017-12-19T05:46:45.327Z,27.08
2017-12-19T05:49:13.426Z,24.65
2017-12-19T05:51:41.597Z,76.12
2017-12-19T05:54:09.700Z,34.72
2017-12-19T05:56:38.381Z,27.85
2017-12-19T05:59:06.458Z,24.50
2017-12-19T06:01:35.394Z,22.17
2017-12-19T06:04:03.994Z,26.08
2017-12-19T06:06:32.918Z,28.00
2017-12-19T06:09:01.777Z,27.05
2017-12-19T06:11:30.731Z,26.37
2017-12-19T06:14:00.406Z,24.05
2017-12-19T06:16:28.510Z,28.92
2017-12-19T06:18:57.373Z,19.80
2017-12-19T06:21:26.270Z,23.85
2017-12-19T06:23:54.770Z,24.75
2017-12-19T06:26:23.542Z,29.25
2017-12-19T06:28:51.588Z,23.12
2017-12-19T06:31:19.627Z,21.80
2017-12-19T06:33:47.743Z,25.70
2017-12-19T06:36:15.840Z,26.58
2017-12-19T06:38:43.910Z,28.40
2017-12-19T06:41:12.894Z,25.55
2017-12-19T06:43:40.943Z,26.48
2017-12-19T06:46:09.032Z,27.00
2017-12-19T06:48:37.323Z,28.75
2017-12-19T06:51:05.441Z,28.33
2017-12-19T06:53:33.459Z,27.92
2017-12-19T06:56:01.615Z,28.52
2017-12-19T06:58:29.696Z,27.65
2017-12-19T07:00:57.830Z,27.15
2017-12-19T07:03:25.878Z,26.17
2017-12-19T07:05:55.628Z,25.33
2017-12-19T07:08:23.762Z,23.87
2017-12-19T07:10:52.595Z,25.62
2017-12-19T07:13:20.639Z,29.50
2017-12-19T07:15:48.738Z,32.67
2017-12-19T07:18:16.790Z,27.60
2017-12-19T07:20:44.834Z,34.60
2017-12-19T07:23:13.675Z,24.77
2017-12-19T07:25:41.748Z,29.73
2017-12-19T07:28:09.778Z,28.30
2017-12-19T07:30:38.619Z,26.42
2017-12-19T07:33:06.698Z,29.92
2017-12-19T07:35:34.740Z,29.15
2017-12-19T07:38:03.587Z,29.33
2017-12-19T07:40:33.374Z,22.45
2017-12-19T07:43:01.470Z,29.20
2017-12-19T07:45:30.339Z,23.25
2017-12-19T07:47:59.251Z,23.02
2017-12-19T07:50:28.406Z,24.73
2017-12-19T07:52:56.461Z,26.35
2017-12-19T07:55:24.454Z,23.50
2017-12-19T07:57:53.567Z,25.10
2017-12-19T08:00:21.559Z,25.80
2017-12-19T08:02:50.368Z,24.85
2017-12-19T08:05:18.388Z,21.77
2017-12-19T08:07:47.330Z,36.28
2017-12-19T08:10:15.482Z,24.63
2017-12-19T08:12:45.218Z,26.15
2017-12-19T08:15:13.624Z,29.75
2017-12-19T08:17:41.825Z,31.45
2017-12-19T08:20:10.722Z,30.88
2017-12-19T08:22:38.719Z,27.40
2017-12-19T08:25:07.503Z,26.48
2017-12-19T08:27:36.358Z,29.92
2017-12-19T08:30:05.281Z,34.47
2017-12-19T08:32:34.047Z,33.83
2017-12-19T08:35:02.035Z,30.60
2017-12-19T08:37:30.816Z,28.12
2017-12-19T08:39:58.780Z,28.45
2017-12-19T08:42:26.783Z,31.95
2017-12-19T08:44:54.782Z,28.75
2017-12-19T08:47:22.779Z,25.50
2017-12-19T08:49:50.802Z,25.98
2017-12-19T08:52:18.924Z,27.15
2017-12-19T08:54:46.934Z,30.27
2017-12-19T08:57:17.278Z,24.08
2017-12-19T08:59:47.184Z,30.40
2017-12-19T09:05:07.382Z,35.72
2017-12-19T09:07:35.610Z,28.58
2017-12-19T09:10:04.555Z,28.35
2017-12-19T09:15:20.081Z,29.67
2017-12-19T09:17:50.414Z,32.40
2017-12-19T09:20:27.188Z,31.75
2017-12-19T09:23:01.868Z,27.83
2017-12-19T09:25:32.780Z,29.85
2017-12-19T09:28:07.889Z,25.92
2017-12-19T09:30:39.653Z,29.23
2017-12-19T09:33:11.661Z,29.80
2017-12-19T09:35:43.314Z,30.95
2017-12-19T09:41:36.080Z,32.38
2017-12-19T09:44:11.630Z,32.05
2017-12-19T09:46:43.768Z,35.95
2017-12-19T09:49:19.483Z,30.40
2017-12-19T09:51:50.999Z,27.67
2017-12-19T09:54:22.562Z,32.28
2017-12-19T09:56:56.762Z,31.50
2017-12-19T09:59:28.914Z,35.47
2017-12-19T10:02:00.817Z,38.47
2017-12-19T10:04:34.347Z,55.45
2017-12-19T10:07:06.210Z,33.45
2017-12-19T10:09:38.272Z,27.85
2017-12-19T10:12:13.972Z,24.47
2017-12-19T10:14:54.848Z,24.85
2017-12-19T10:20:05.990Z,26.00
2017-12-19T10:25:37.926Z,27.15
2017-12-19T10:28:09.870Z,25.37
2017-12-19T10:30:41.897Z,26.17
2017-12-19T10:33:14.747Z,26.60
2017-12-19T10:35:48.188Z,27.90
2017-12-19T10:38:20.378Z,24.93
2017-12-19T10:40:52.594Z,24.93
2017-12-19T10:43:23.232Z,26.13
2017-12-19T10:45:54.697Z,29.57
2017-12-19T10:48:27.293Z,32.77
2017-12-19T10:51:04.827Z,33.67
2017-12-19T10:53:35.890Z,31.40
2017-12-19T10:56:07.101Z,34.10
2017-12-19T10:58:38.989Z,35.50
2017-12-19T11:03:46.529Z,35.37
2017-12-19T11:06:19.350Z,33.07
2017-12-19T11:08:50.558Z,33.10
2017-12-19T11:13:58.800Z,31.27
2017-12-19T11:19:10.370Z,34.47
2017-12-19T11:21:48.536Z,44.20
2017-12-19T11:24:31.185Z,52.00
2017-12-19T11:27:04.571Z,42.33
2017-12-19T11:29:44.987Z,35.73
2017-12-19T11:32:13.283Z,30.83
2017-12-19T11:34:41.414Z,44.87
2017-12-19T11:37:09.531Z,416.73
2017-12-19T11:39:37.627Z,294.90
2017-12-19T11:42:06.463Z,179.27
2017-12-19T11:44:39.303Z,48.33
2017-12-19T11:47:15.351Z,34.47
2017-12-19T11:52:32.177Z,35.03
2017-12-19T11:55:04.697Z,32.70
2017-12-19T11:57:32.805Z,32.87
2017-12-19T12:00:00.834Z,32.20
2017-12-19T12:02:28.891Z,32.83
2017-12-19T12:04:56.902Z,32.70
2017-12-19T12:07:24.945Z,44.07
2017-12-19T12:09:52.963Z,33.03
2017-12-19T12:12:21.007Z,32.70
2017-12-19T12:14:49.001Z,41.13
2017-12-19T12:17:17.035Z,31.27
2017-12-19T12:19:45.039Z,36.60
2017-12-19T12:22:13.073Z,37.83
2017-12-19T12:24:41.092Z,37.50
2017-12-19T12:27:09.139Z,40.10
2017-12-19T12:29:37.146Z,36.43
2017-12-19T12:32:05.934Z,33.97
2017-12-19T12:34:34.734Z,36.50
2017-12-19T12:37:03.550Z,33.00
2017-12-19T12:39:31.557Z,36.00
2017-12-19T12:41:59.563Z,37.47
2017-12-19T12:44:28.359Z,35.63
2017-12-19T12:46:56.418Z,31.83
2017-12-19T12:49:25.219Z,31.53
2017-12-19T12:51:53.231Z,34.23
2017-12-19T12:54:21.251Z,36.50
2017-12-19T12:56:49.983Z,33.23
2017-12-19T12:59:18.070Z,43.13
2017-12-19T13:01:46.182Z,35.40
2017-12-19T13:04:15.006Z,30.63
2017-12-19T13:06:43.075Z,35.80
2017-12-19T13:09:11.075Z,39.07
2017-12-19T13:11:39.221Z,35.20
2017-12-19T13:14:07.292Z,39.27
2017-12-19T13:16:35.850Z,36.47
2017-12-19T13:19:03.850Z,31.40
2017-12-19T13:21:31.890Z,35.90
2017-12-19T13:23:59.882Z,39.07
2017-12-19T13:26:27.862Z,38.37
2017-12-19T13:28:55.889Z,40.22
2017-12-19T13:31:24.624Z,35.73
2017-12-19T13:33:52.607Z,38.57
2017-12-19T13:36:20.607Z,35.70
2017-12-19T13:38:49.377Z,36.90
2017-12-19T13:41:17.391Z,38.33
2017-12-19T13:43:45.410Z,37.55
2017-12-19T13:46:13.404Z,41.17
2017-12-19T13:48:42.188Z,37.33
2017-12-19T13:51:10.207Z,37.28
2017-12-19T13:53:38.222Z,38.83
2017-12-19T13:56:06.222Z,40.37
2017-12-19T13:58:35.068Z,38.80
2017-12-19T14:01:03.071Z,38.87
2017-12-19T14:03:31.870Z,42.03
2017-12-19T14:05:59.899Z,39.00
2017-12-19T14:08:27.888Z,41.40
2017-12-19T14:10:55.917Z,34.07
2017-12-19T14:13:23.948Z,42.58
2017-12-19T14:15:52.735Z,32.65
2017-12-19T14:18:21.514Z,37.35
2017-12-19T14:20:50.296Z,38.63
2017-12-19T14:23:18.368Z,31.90
2017-12-19T14:25:46.394Z,38.58
2017-12-19T14:28:14.439Z,42.85
2017-12-19T14:30:42.450Z,35.75
2017-12-19T14:33:10.461Z,39.08
2017-12-19T14:35:39.241Z,33.97
2017-12-19T14:38:08.009Z,31.58
2017-12-19T14:40:35.992Z,32.97
2017-12-19T14:43:03.979Z,32.55
2017-12-19T14:45:32.766Z,32.50
2017-12-19T14:48:01.625Z,38.25
2017-12-19T14:50:29.654Z,64.35
2017-12-19T14:52:57.670Z,33.72
2017-12-19T14:55:25.803Z,45.55
2017-12-19T14:57:53.803Z,40.00
2017-12-19T15:00:21.855Z,41.22
2017-12-19T15:02:49.919Z,34.38
2017-12-19T15:05:17.918Z,46.60
2017-12-19T15:07:45.932Z,31.15
2017-12-19T15:10:14.735Z,42.58
2017-12-19T15:12:42.714Z,32.72
2017-12-19T15:15:10.720Z,34.95
2017-12-19T15:17:38.760Z,35.80
2017-12-19T15:20:06.763Z,33.53
2017-12-19T15:22:34.754Z,35.05
2017-12-19T15:25:02.754Z,35.92
2017-12-19T15:27:30.732Z,35.15
2017-12-19T15:29:58.733Z,31.27
2017-12-19T15:32:26.725Z,37.13
2017-12-19T15:34:54.698Z,41.42
2017-12-19T15:37:22.722Z,36.35
2017-12-19T15:39:50.727Z,29.77
2017-12-19T15:42:18.778Z,35.53
2017-12-19T15:44:46.814Z,27.73
2017-12-19T15:47:14.917Z,34.88
2017-12-19T15:49:42.944Z,33.90
2017-12-19T15:52:11.702Z,34.35
2017-12-19T15:54:39.719Z,33.28
2017-12-19T15:57:07.721Z,33.00
2017-12-19T15:59:35.729Z,33.90
2017-12-19T16:02:03.714Z,35.40
2017-12-19T16:04:32.522Z,44.95
2017-12-19T16:07:00.495Z,42.30
2017-12-19T16:09:28.488Z,43.65
2017-12-19T16:11:56.510Z,35.47
2017-12-19T16:14:24.566Z,41.85
2017-12-19T16:16:52.615Z,34.65
2017-12-19T16:19:20.624Z,37.60
2017-12-19T16:21:49.374Z,40.75
2017-12-19T16:24:17.375Z,37.42
2017-12-19T16:26:46.135Z,33.38
2017-12-19T16:29:14.228Z,34.65
2017-12-19T16:31:42.250Z,30.67
2017-12-19T16:34:10.255Z,37.50
2017-12-19T16:36:43.119Z,34.38
2017-12-19T16:39:22.961Z,35.28
2017-12-19T16:42:03.381Z,43.22
2017-12-19T16:44:45.482Z,39.45
2017-12-19T16:47:23.404Z,33.30
2017-12-19T16:50:04.068Z,36.97
2017-12-19T16:52:43.457Z,34.88
2017-12-19T16:55:24.350Z,44.22
2017-12-19T16:58:06.180Z,45.85
2017-12-19T17:03:23.070Z,43.75
2017-12-19T17:06:01.223Z,46.47
2017-12-19T17:08:35.311Z,50.92
2017-12-19T17:11:16.415Z,45.75
2017-12-19T17:13:53.482Z,46.70
2017-12-19T17:16:28.913Z,52.45
2017-12-19T17:19:14.045Z,55.97
2017-12-19T17:21:53.385Z,51.28
2017-12-19T17:24:34.232Z,58.13
2017-12-19T17:27:14.415Z,47.90
2017-12-19T17:29:54.623Z,52.17
2017-12-19T17:32:27.229Z,49.72
2017-12-19T17:35:08.179Z,57.13
2017-12-19T17:37:48.505Z,54.88
2017-12-19T17:40:28.442Z,61.00
2017-12-19T17:43:10.050Z,51.13
2017-12-19T17:45:50.359Z,57.97
2017-12-19T17:48:30.887Z,55.42
2017-12-19T17:51:05.422Z,55.65
2017-12-19T17:53:44.895Z,52.65
2017-12-19T17:56:25.717Z,58.20
2017-12-19T17:58:58.265Z,50.20
2017-12-19T18:01:38.292Z,57.15
2017-12-19T18:04:06.847Z,60.95
2017-12-19T18:06:48.040Z,52.35
2017-12-19T18:09:29.559Z,49.65
2017-12-19T18:12:10.169Z,62.15
2017-12-19T18:14:38.197Z,54.08
2017-12-19T18:17:06.197Z,51.22
2017-12-19T18:19:34.936Z,46.75
2017-12-19T18:22:02.935Z,53.08
2017-12-19T18:24:30.970Z,49.05
2017-12-19T18:26:58.976Z,46.17
2017-12-19T18:29:26.955Z,46.13
2017-12-19T18:31:55.708Z,47.17
2017-12-19T18:34:23.717Z,53.35
2017-12-19T18:36:52.511Z,45.42
2017-12-19T18:39:21.271Z,49.58
2017-12-19T18:42:02.472Z,52.72
2017-12-19T18:44:44.583Z,57.97
2017-12-19T18:47:25.932Z,49.00
2017-12-19T18:50:04.269Z,50.17
2017-12-19T18:52:38.388Z,54.00
2017-12-19T18:55:20.191Z,54.60
2017-12-19T18:58:01.053Z,51.75
2017-12-19T19:00:43.036Z,53.47
2017-12-19T19:03:24.424Z,53.42
2017-12-19T19:06:06.375Z,55.42
2017-12-19T19:08:47.083Z,54.05
2017-12-19T19:11:27.907Z,53.25
2017-12-19T19:13:55.906Z,56.00
2017-12-19T19:16:23.994Z,45.55
2017-12-19T19:19:05.765Z,54.47
2017-12-19T19:21:48.076Z,63.40
2017-12-19T19:24:30.555Z,55.65
2017-12-19T19:27:01.350Z,58.35
2017-12-19T19:29:30.414Z,57.33
2017-12-19T19:31:59.903Z,51.60
2017-12-19T19:34:28.386Z,51.67
2017-12-19T19:36:56.373Z,52.83
2017-12-19T19:39:24.351Z,47.55
2017-12-19T19:41:53.377Z,53.28
2017-12-19T19:44:21.471Z,56.50
2017-12-19T19:47:02.976Z,56.75
2017-12-19T19:49:31.771Z,43.70
2017-12-19T19:51:59.852Z,59.75
2017-12-19T19:54:27.947Z,49.10
2017-12-19T19:57:00.120Z,51.63
2017-12-19T19:59:28.867Z,49.22
2017-12-19T20:01:57.135Z,45.67
2017-12-19T20:04:25.158Z,59.45
2017-12-19T20:06:53.939Z,47.05
2017-12-19T20:09:22.966Z,51.78
2017-12-19T20:11:51.285Z,52.17
2017-12-19T20:14:19.915Z,45.67
2017-12-19T20:16:48.095Z,43.67
2017-12-19T20:19:17.056Z,44.33
2017-12-19T20:21:45.054Z,45.85
2017-12-19T20:24:13.716Z,48.67
2017-12-19T20:26:43.406Z,46.25
2017-12-19T20:29:11.442Z,47.53
2017-12-19T20:31:39.507Z,60.12
2017-12-19T20:34:07.514Z,53.70
2017-12-19T20:36:35.502Z,44.70
2017-12-19T20:39:03.623Z,50.05
2017-12-19T20:41:31.739Z,43.95
2017-12-19T20:43:59.754Z,44.38
2017-12-19T20:46:27.749Z,51.47
2017-12-19T20:48:56.635Z,42.95
2017-12-19T20:51:24.646Z,49.33
2017-12-19T20:53:52.667Z,52.62
2017-12-19T20:56:20.672Z,45.12
2017-12-19T20:58:48.735Z,47.78
2017-12-19T21:01:16.750Z,43.60
2017-12-19T21:03:45.530Z,47.45
2017-12-19T21:06:14.982Z,43.92
2017-12-19T21:08:42.967Z,50.42
2017-12-19T21:11:10.966Z,50.00
2017-12-19T21:13:38.955Z,40.65
2017-12-19T21:16:07.729Z,45.03
2017-12-19T21:18:36.485Z,41.65
2017-12-19T21:21:04.493Z,46.67
2017-12-19T21:23:34.165Z,41.97
2017-12-19T21:26:02.137Z,42.47
2017-12-19T21:28:30.659Z,44.55
2017-12-19T21:30:59.474Z,49.03
2017-12-19T21:33:27.483Z,52.33
2017-12-19T21:35:55.476Z,42.92
2017-12-19T21:38:23.439Z,47.47
2017-12-19T21:40:51.445Z,41.50
2017-12-19T21:43:19.428Z,45.15
2017-12-19T21:45:47.419Z,40.97
2017-12-19T21:48:15.395Z,40.75
2017-12-19T21:50:43.386Z,40.33
2017-12-19T21:53:11.523Z,42.40
2017-12-19T21:55:39.496Z,42.20
2017-12-19T21:58:07.484Z,41.20
2017-12-19T22:00:35.509Z,39.33
2017-12-19T22:03:03.511Z,40.85
2017-12-19T22:05:31.878Z,36.78
2017-12-19T22:07:59.862Z,38.45
2017-12-19T22:10:27.904Z,43.45
2017-12-19T22:12:55.915Z,38.08
2017-12-19T22:15:23.917Z,33.95
2017-12-19T22:17:52.655Z,35.35
2017-12-19T22:20:21.546Z,38.30
2017-12-19T22:22:49.525Z,34.22
2017-12-19T22:25:17.530Z,35.00
2017-12-19T22:27:46.299Z,38.45
2017-12-19T22:30:14.359Z,42.55
2017-12-19T22:32:42.991Z,47.13
2017-12-19T22:35:10.957Z,39.00
2017-12-19T22:37:39.722Z,37.42
2017-12-19T22:40:07.800Z,38.47
2017-12-19T22:42:36.549Z,33.28
2017-12-19T22:45:04.567Z,32.47
2017-12-19T22:47:34.214Z,35.97
2017-12-19T22:50:02.252Z,28.10
2017-12-19T22:52:31.099Z,30.80
2017-12-19T22:54:59.070Z,30.25
2017-12-19T22:57:27.053Z,33.63
2017-12-19T22:59:55.826Z,34.70
2017-12-19T23:02:23.799Z,35.05
2017-12-19T23:04:51.786Z,31.40
2017-12-19T23:07:19.770Z,33.15
2017-12-19T23:09:48.514Z,28.15
2017-12-19T23:12:17.320Z,32.88
2017-12-19T23:14:45.291Z,32.83
2017-12-19T23:17:13.278Z,27.40
2017-12-19T23:19:41.307Z,31.73
2017-12-19T23:22:09.306Z,31.33
2017-12-19T23:24:38.394Z,30.58
2017-12-19T23:27:06.436Z,33.45
2017-12-19T23:29:34.436Z,30.35
2017-12-19T23:32:02.438Z,30.60
2017-12-19T23:34:31.211Z,30.98
2017-12-19T23:36:59.226Z,31.70
2017-12-19T23:39:27.199Z,30.95
2017-12-19T23:41:55.201Z,29.52
2017-12-19T23:44:23.196Z,32.05
2017-12-19T23:46:51.982Z,28.30
2017-12-19T23:49:20.767Z,30.75
2017-12-19T23:51:48.784Z,31.95
2017-12-19T23:54:16.763Z,32.20
2017-12-19T23:56:44.751Z,30.00
2017-12-19T23:59:12.822Z,29.33
